sensor_id;sensor_type;location;lat;lon;timestamp;P1;durP1;ratioP1;P2;durP2;ratioP2
55021;SDS011;68328;35.990;-86.756;2023-03-11T00:01:40;5;;;5;;
55021;SDS011;68328;35.990;-86.756;2023-03-11T00:04:06;9;;;6;;
55021;SDS011;68328;35.990;-86.756;2023-03-11T00:06:31;6;;;6;;
55021;SDS011;68328;35.990;-86.756;2023-03-11T00:08:56;10;;;10;;
55021;SDS011;68328;35.990;-86.756;2023-03-11T00:11:21;7;;;7;;
55021;SDS011;68328;35.990;-86.756;2023-03-11T00:13:46;5;;;5;;
55021;SDS011;68328;35.990;-86.756;2023-03-11T00:16:11;5;;;5;;
55021;SDS011;68328;35.990;-86.756;2023-03-11T00:18:37;4;;;4;;
55021;SDS011;68328;35.990;-86.756;2023-03-11T00:21:03;5;;;5;;
55021;SDS011;68328;35.990;-86.756;2023-03-11T00:23:28;7;;;7;;
55021;SDS011;68328;35.990;-86.756;2023-03-11T00:25:53;5;;;5;;
55021;SDS011;68328;35.990;-86.756;2023-03-11T00:28:18;6;;;6;;
55021;SDS011;68328;35.990;-86.756;2023-03-11T00:30:44;6;;;5;;
55021;SDS011;68328;35.990;-86.756;2023-03-11T00:33:09;4;;;4;;
55021;SDS011;68328;35.990;-86.756;2023-03-11T00:35:35;7;;;6;;
55021;SDS011;68328;35.990;-86.756;2023-03-11T00:38:00;5;;;5;;
55021;SDS011;68328;35.990;-86.756;2023-03-11T00:40:26;6;;;6;;
55021;SDS011;68328;35.990;-86.756;2023-03-11T00:42:51;6;;;5;;
55021;SDS011;68328;35.990;-86.756;2023-03-11T00:45:16;4;;;4;;
55021;SDS011;68328;35.990;-86.756;2023-03-11T00:47:41;3;;;3;;
55021;SDS011;68328;35.990;-86.756;2023-03-11T00:50:08;5;;;4;;
55021;SDS011;68328;35.990;-86.756;2023-03-11T00:52:32;5;;;5;;
55021;SDS011;68328;35.990;-86.756;2023-03-11T00:54:58;5;;;4;;
55021;SDS011;68328;35.990;-86.756;2023-03-11T00:57:22;6;;;6;;
55021;SDS011;68328;35.990;-86.756;2023-03-11T00:59:47;4;;;4;;
55021;SDS011;68328;35.990;-86.756;2023-03-11T01:02:14;6;;;6;;
55021;SDS011;68328;35.990;-86.756;2023-03-11T01:04:38;5;;;5;;
55021;SDS011;68328;35.990;-86.756;2023-03-11T01:07:04;5;;;5;;
55021;SDS011;68328;35.990;-86.756;2023-03-11T01:09:29;6;;;6;;
55021;SDS011;68328;35.990;-86.756;2023-03-11T01:11:54;3;;;3;;
55021;SDS011;68328;35.990;-86.756;2023-03-11T01:14:20;4;;;4;;
55021;SDS011;68328;35.990;-86.756;2023-03-11T01:16:45;6;;;6;;
55021;SDS011;68328;35.990;-86.756;2023-03-11T01:19:11;7;;;6;;
55021;SDS011;68328;35.990;-86.756;2023-03-11T01:21:36;5;;;5;;
55021;SDS011;68328;35.990;-86.756;2023-03-11T01:24:01;6;;;5;;
55021;SDS011;68328;35.990;-86.756;2023-03-11T01:26:27;7;;;7;;
55021;SDS011;68328;35.990;-86.756;2023-03-11T01:28:52;5;;;5;;
55021;SDS011;68328;35.990;-86.756;2023-03-11T01:31:18;4;;;4;;
55021;SDS011;68328;35.990;-86.756;2023-03-11T01:33:43;5;;;5;;
55021;SDS011;68328;35.990;-86.756;2023-03-11T01:36:08;7;;;7;;
55021;SDS011;68328;35.990;-86.756;2023-03-11T01:38:33;7;;;5;;
55021;SDS011;68328;35.990;-86.756;2023-03-11T01:40:59;5;;;5;;
55021;SDS011;68328;35.990;-86.756;2023-03-11T01:48:15;5;;;5;;
55021;SDS011;68328;35.990;-86.756;2023-03-11T01:50:42;4;;;4;;
55021;SDS011;68328;35.990;-86.756;2023-03-11T01:53:05;3;;;2;;
55021;SDS011;68328;35.990;-86.756;2023-03-11T01:55:33;5;;;5;;
55021;SDS011;68328;35.990;-86.756;2023-03-11T01:57:56;5;;;5;;
55021;SDS011;68328;35.990;-86.756;2023-03-11T02:00:22;5;;;5;;
55021;SDS011;68328;35.990;-86.756;2023-03-11T02:02:48;4;;;4;;
55021;SDS011;68328;35.990;-86.756;2023-03-11T02:05:12;4;;;4;;
55021;SDS011;68328;35.990;-86.756;2023-03-11T02:07:38;5;;;5;;
55021;SDS011;68328;35.990;-86.756;2023-03-11T02:10:03;6;;;6;;
55021;SDS011;68328;35.990;-86.756;2023-03-11T02:12:28;3;;;3;;
55021;SDS011;68328;35.990;-86.756;2023-03-11T02:14:53;4;;;4;;
55021;SDS011;68328;35.990;-86.756;2023-03-11T02:17:19;6;;;6;;
55021;SDS011;68328;35.990;-86.756;2023-03-11T02:19:49;4;;;4;;
55021;SDS011;68328;35.990;-86.756;2023-03-11T02:22:10;6;;;6;;
55021;SDS011;68328;35.990;-86.756;2023-03-11T02:24:36;6;;;5;;
55021;SDS011;68328;35.990;-86.756;2023-03-11T02:27:02;5;;;5;;
55021;SDS011;68328;35.990;-86.756;2023-03-11T02:29:26;5;;;5;;
55021;SDS011;68328;35.990;-86.756;2023-03-11T02:31:52;5;;;5;;
55021;SDS011;68328;35.990;-86.756;2023-03-11T02:34:18;6;;;5;;
55021;SDS011;68328;35.990;-86.756;2023-03-11T02:36:42;6;;;6;;
55021;SDS011;68328;35.990;-86.756;2023-03-11T02:39:07;5;;;5;;
55021;SDS011;68328;35.990;-86.756;2023-03-11T02:41:34;5;;;5;;
55021;SDS011;68328;35.990;-86.756;2023-03-11T02:43:58;7;;;7;;
55021;SDS011;68328;35.990;-86.756;2023-03-11T02:46:24;6;;;5;;
55021;SDS011;68328;35.990;-86.756;2023-03-11T02:48:49;7;;;5;;
55021;SDS011;68328;35.990;-86.756;2023-03-11T02:51:14;6;;;4;;
55021;SDS011;68328;35.990;-86.756;2023-03-11T02:53:40;7;;;7;;
55021;SDS011;68328;35.990;-86.756;2023-03-11T02:56:05;5;;;5;;
55021;SDS011;68328;35.990;-86.756;2023-03-11T02:58:31;6;;;5;;
55021;SDS011;68328;35.990;-86.756;2023-03-11T03:00:56;7;;;7;;
55021;SDS011;68328;35.990;-86.756;2023-03-11T03:03:21;6;;;6;;
55021;SDS011;68328;35.990;-86.756;2023-03-11T03:05:46;5;;;4;;
55021;SDS011;68328;35.990;-86.756;2023-03-11T03:08:12;7;;;6;;
55021;SDS011;68328;35.990;-86.756;2023-03-11T03:10:38;5;;;5;;
55021;SDS011;68328;35.990;-86.756;2023-03-11T03:13:03;7;;;6;;
55021;SDS011;68328;35.990;-86.756;2023-03-11T03:15:28;8;;;8;;
55021;SDS011;68328;35.990;-86.756;2023-03-11T03:17:53;4;;;4;;
55021;SDS011;68328;35.990;-86.756;2023-03-11T03:20:19;6;;;6;;
55021;SDS011;68328;35.990;-86.756;2023-03-11T03:22:44;7;;;7;;
55021;SDS011;68328;35.990;-86.756;2023-03-11T03:25:10;8;;;8;;
55021;SDS011;68328;35.990;-86.756;2023-03-11T03:27:35;5;;;5;;
55021;SDS011;68328;35.990;-86.756;2023-03-11T03:30:00;7;;;7;;
55021;SDS011;68328;35.990;-86.756;2023-03-11T03:32:26;7;;;7;;
55021;SDS011;68328;35.990;-86.756;2023-03-11T03:34:52;8;;;7;;
55021;SDS011;68328;35.990;-86.756;2023-03-11T03:37:17;6;;;6;;
55021;SDS011;68328;35.990;-86.756;2023-03-11T03:39:42;6;;;6;;
55021;SDS011;68328;35.990;-86.756;2023-03-11T03:42:08;6;;;6;;
55021;SDS011;68328;35.990;-86.756;2023-03-11T03:44:33;6;;;6;;
55021;SDS011;68328;35.990;-86.756;2023-03-11T03:46:59;8;;;6;;
55021;SDS011;68328;35.990;-86.756;2023-03-11T03:49:24;6;;;6;;
55021;SDS011;68328;35.990;-86.756;2023-03-11T03:51:49;7;;;7;;
55021;SDS011;68328;35.990;-86.756;2023-03-11T03:54:15;6;;;6;;
55021;SDS011;68328;35.990;-86.756;2023-03-11T03:56:40;10;;;9;;
55021;SDS011;68328;35.990;-86.756;2023-03-11T03:59:06;8;;;6;;
55021;SDS011;68328;35.990;-86.756;2023-03-11T04:01:31;6;;;5;;
55021;SDS011;68328;35.990;-86.756;2023-03-11T04:03:56;6;;;6;;
55021;SDS011;68328;35.990;-86.756;2023-03-11T04:06:23;8;;;8;;
55021;SDS011;68328;35.990;-86.756;2023-03-11T04:08:47;5;;;5;;
55021;SDS011;68328;35.990;-86.756;2023-03-11T04:11:13;8;;;7;;
55021;SDS011;68328;35.990;-86.756;2023-03-11T04:13:38;14;;;12;;
55021;SDS011;68328;35.990;-86.756;2023-03-11T04:16:04;7;;;7;;
55021;SDS011;68328;35.990;-86.756;2023-03-11T04:18:29;7;;;6;;
55021;SDS011;68328;35.990;-86.756;2023-03-11T04:20:54;6;;;6;;
55021;SDS011;68328;35.990;-86.756;2023-03-11T04:23:20;7;;;7;;
55021;SDS011;68328;35.990;-86.756;2023-03-11T04:25:45;6;;;6;;
55021;SDS011;68328;35.990;-86.756;2023-03-11T04:28:10;5;;;5;;
55021;SDS011;68328;35.990;-86.756;2023-03-11T04:30:36;4;;;4;;
55021;SDS011;68328;35.990;-86.756;2023-03-11T04:33:01;5;;;5;;
55021;SDS011;68328;35.990;-86.756;2023-03-11T04:35:26;7;;;7;;
55021;SDS011;68328;35.990;-86.756;2023-03-11T04:37:52;6;;;6;;
55021;SDS011;68328;35.990;-86.756;2023-03-11T04:40:17;8;;;7;;
55021;SDS011;68328;35.990;-86.756;2023-03-11T04:42:43;4;;;4;;
55021;SDS011;68328;35.990;-86.756;2023-03-11T04:45:09;6;;;6;;
55021;SDS011;68328;35.990;-86.756;2023-03-11T04:47:33;8;;;7;;
55021;SDS011;68328;35.990;-86.756;2023-03-11T04:49:59;7;;;7;;
55021;SDS011;68328;35.990;-86.756;2023-03-11T04:52:24;7;;;7;;
55021;SDS011;68328;35.990;-86.756;2023-03-11T04:54:49;5;;;5;;
55021;SDS011;68328;35.990;-86.756;2023-03-11T04:57:15;7;;;7;;
55021;SDS011;68328;35.990;-86.756;2023-03-11T04:59:40;7;;;7;;
55021;SDS011;68328;35.990;-86.756;2023-03-11T05:02:06;9;;;8;;
55021;SDS011;68328;35.990;-86.756;2023-03-11T05:04:31;7;;;7;;
55021;SDS011;68328;35.990;-86.756;2023-03-11T05:06:56;9;;;8;;
55021;SDS011;68328;35.990;-86.756;2023-03-11T05:09:22;8;;;8;;
55021;SDS011;68328;35.990;-86.756;2023-03-11T05:11:47;8;;;8;;
55021;SDS011;68328;35.990;-86.756;2023-03-11T05:14:12;8;;;8;;
55021;SDS011;68328;35.990;-86.756;2023-03-11T05:16:38;7;;;7;;
55021;SDS011;68328;35.990;-86.756;2023-03-11T05:19:03;10;;;10;;
55021;SDS011;68328;35.990;-86.756;2023-03-11T05:21:29;9;;;9;;
55021;SDS011;68328;35.990;-86.756;2023-03-11T05:23:54;10;;;9;;
55021;SDS011;68328;35.990;-86.756;2023-03-11T05:26:19;8;;;8;;
55021;SDS011;68328;35.990;-86.756;2023-03-11T05:28:45;10;;;10;;
55021;SDS011;68328;35.990;-86.756;2023-03-11T05:31:10;10;;;9;;
55021;SDS011;68328;35.990;-86.756;2023-03-11T05:33:36;6;;;6;;
55021;SDS011;68328;35.990;-86.756;2023-03-11T05:36:03;9;;;8;;
55021;SDS011;68328;35.990;-86.756;2023-03-11T05:38:28;11;;;10;;
55021;SDS011;68328;35.990;-86.756;2023-03-11T05:40:52;8;;;8;;
55021;SDS011;68328;35.990;-86.756;2023-03-11T05:43:17;8;;;8;;
55021;SDS011;68328;35.990;-86.756;2023-03-11T05:45:43;8;;;8;;
55021;SDS011;68328;35.990;-86.756;2023-03-11T05:48:09;8;;;8;;
55021;SDS011;68328;35.990;-86.756;2023-03-11T05:50:34;7;;;6;;
55021;SDS011;68328;35.990;-86.756;2023-03-11T05:52:59;10;;;10;;
55021;SDS011;68328;35.990;-86.756;2023-03-11T05:55:24;12;;;12;;
55021;SDS011;68328;35.990;-86.756;2023-03-11T05:57:50;8;;;8;;
55021;SDS011;68328;35.990;-86.756;2023-03-11T06:02:40;11;;;9;;
55021;SDS011;68328;35.990;-86.756;2023-03-11T06:05:06;7;;;7;;
55021;SDS011;68328;35.990;-86.756;2023-03-11T06:07:33;8;;;8;;
55021;SDS011;68328;35.990;-86.756;2023-03-11T06:09:57;7;;;7;;
55021;SDS011;68328;35.990;-86.756;2023-03-11T06:12:22;8;;;7;;
55021;SDS011;68328;35.990;-86.756;2023-03-11T06:14:48;8;;;8;;
55021;SDS011;68328;35.990;-86.756;2023-03-11T06:17:13;6;;;6;;
55021;SDS011;68328;35.990;-86.756;2023-03-11T06:19:39;9;;;9;;
55021;SDS011;68328;35.990;-86.756;2023-03-11T06:22:04;7;;;7;;
55021;SDS011;68328;35.990;-86.756;2023-03-11T06:24:29;6;;;6;;
55021;SDS011;68328;35.990;-86.756;2023-03-11T06:26:54;6;;;6;;
55021;SDS011;68328;35.990;-86.756;2023-03-11T06:29:20;6;;;6;;
55021;SDS011;68328;35.990;-86.756;2023-03-11T06:31:45;4;;;4;;
55021;SDS011;68328;35.990;-86.756;2023-03-11T06:34:11;5;;;5;;
55021;SDS011;68328;35.990;-86.756;2023-03-11T06:36:36;7;;;7;;
55021;SDS011;68328;35.990;-86.756;2023-03-11T06:39:01;6;;;6;;
55021;SDS011;68328;35.990;-86.756;2023-03-11T06:43:53;8;;;8;;
55021;SDS011;68328;35.990;-86.756;2023-03-11T06:46:18;7;;;7;;
55021;SDS011;68328;35.990;-86.756;2023-03-11T06:48:43;6;;;6;;
55021;SDS011;68328;35.990;-86.756;2023-03-11T06:51:09;7;;;6;;
55021;SDS011;68328;35.990;-86.756;2023-03-11T06:53:34;9;;;9;;
55021;SDS011;68328;35.990;-86.756;2023-03-11T06:56:01;7;;;6;;
55021;SDS011;68328;35.990;-86.756;2023-03-11T06:58:25;6;;;6;;
55021;SDS011;68328;35.990;-86.756;2023-03-11T07:00:50;5;;;5;;
55021;SDS011;68328;35.990;-86.756;2023-03-11T07:03:16;6;;;6;;
55021;SDS011;68328;35.990;-86.756;2023-03-11T07:05:41;4;;;4;;
55021;SDS011;68328;35.990;-86.756;2023-03-11T07:08:06;6;;;6;;
55021;SDS011;68328;35.990;-86.756;2023-03-11T07:10:32;10;;;8;;
55021;SDS011;68328;35.990;-86.756;2023-03-11T07:12:57;7;;;7;;
55021;SDS011;68328;35.990;-86.756;2023-03-11T07:15:23;7;;;7;;
55021;SDS011;68328;35.990;-86.756;2023-03-11T07:17:48;6;;;6;;
55021;SDS011;68328;35.990;-86.756;2023-03-11T07:20:14;7;;;6;;
55021;SDS011;68328;35.990;-86.756;2023-03-11T07:22:39;7;;;7;;
55021;SDS011;68328;35.990;-86.756;2023-03-11T07:25:04;9;;;9;;
55021;SDS011;68328;35.990;-86.756;2023-03-11T07:27:31;4;;;4;;
55021;SDS011;68328;35.990;-86.756;2023-03-11T07:29:55;7;;;7;;
55021;SDS011;68328;35.990;-86.756;2023-03-11T07:32:21;7;;;6;;
55021;SDS011;68328;35.990;-86.756;2023-03-11T07:34:46;7;;;7;;
55021;SDS011;68328;35.990;-86.756;2023-03-11T07:37:12;5;;;5;;
55021;SDS011;68328;35.990;-86.756;2023-03-11T07:39:38;7;;;7;;
55021;SDS011;68328;35.990;-86.756;2023-03-11T07:42:03;7;;;7;;
55021;SDS011;68328;35.990;-86.756;2023-03-11T07:44:28;5;;;5;;
55021;SDS011;68328;35.990;-86.756;2023-03-11T07:46:53;5;;;5;;
55021;SDS011;68328;35.990;-86.756;2023-03-11T07:49:19;9;;;9;;
55021;SDS011;68328;35.990;-86.756;2023-03-11T07:51:44;7;;;6;;
55021;SDS011;68328;35.990;-86.756;2023-03-11T07:54:10;6;;;6;;
55021;SDS011;68328;35.990;-86.756;2023-03-11T07:56:35;7;;;7;;
55021;SDS011;68328;35.990;-86.756;2023-03-11T07:59:01;4;;;4;;
55021;SDS011;68328;35.990;-86.756;2023-03-11T08:01:27;8;;;8;;
55021;SDS011;68328;35.990;-86.756;2023-03-11T08:03:52;6;;;6;;
55021;SDS011;68328;35.990;-86.756;2023-03-11T08:06:18;6;;;5;;
55021;SDS011;68328;35.990;-86.756;2023-03-11T08:08:42;6;;;6;;
55021;SDS011;68328;35.990;-86.756;2023-03-11T08:11:08;6;;;6;;
55021;SDS011;68328;35.990;-86.756;2023-03-11T08:13:33;7;;;6;;
55021;SDS011;68328;35.990;-86.756;2023-03-11T08:16:01;6;;;6;;
55021;SDS011;68328;35.990;-86.756;2023-03-11T08:18:24;7;;;7;;
55021;SDS011;68328;35.990;-86.756;2023-03-11T08:20:49;6;;;6;;
55021;SDS011;68328;35.990;-86.756;2023-03-11T08:23:14;6;;;6;;
55021;SDS011;68328;35.990;-86.756;2023-03-11T08:25:40;9;;;6;;
55021;SDS011;68328;35.990;-86.756;2023-03-11T08:28:06;7;;;7;;
55021;SDS011;68328;35.990;-86.756;2023-03-11T08:30:31;6;;;6;;
55021;SDS011;68328;35.990;-86.756;2023-03-11T08:32:56;6;;;6;;
55021;SDS011;68328;35.990;-86.756;2023-03-11T08:35:22;8;;;8;;
55021;SDS011;68328;35.990;-86.756;2023-03-11T08:37:47;7;;;7;;
55021;SDS011;68328;35.990;-86.756;2023-03-11T08:40:13;9;;;7;;
55021;SDS011;68328;35.990;-86.756;2023-03-11T08:42:38;8;;;7;;
55021;SDS011;68328;35.990;-86.756;2023-03-11T08:45:04;8;;;7;;
55021;SDS011;68328;35.990;-86.756;2023-03-11T08:47:32;5;;;5;;
55021;SDS011;68328;35.990;-86.756;2023-03-11T08:49:54;7;;;7;;
55021;SDS011;68328;35.990;-86.756;2023-03-11T08:52:20;9;;;9;;
55021;SDS011;68328;35.990;-86.756;2023-03-11T08:54:45;8;;;6;;
55021;SDS011;68328;35.990;-86.756;2023-03-11T08:57:11;8;;;8;;
55021;SDS011;68328;35.990;-86.756;2023-03-11T08:59:36;8;;;8;;
55021;SDS011;68328;35.990;-86.756;2023-03-11T09:02:02;6;;;6;;
55021;SDS011;68328;35.990;-86.756;2023-03-11T09:04:27;8;;;8;;
55021;SDS011;68328;35.990;-86.756;2023-03-11T09:06:53;6;;;6;;
55021;SDS011;68328;35.990;-86.756;2023-03-11T09:09:18;8;;;8;;
55021;SDS011;68328;35.990;-86.756;2023-03-11T09:11:44;6;;;6;;
55021;SDS011;68328;35.990;-86.756;2023-03-11T09:14:09;10;;;8;;
55021;SDS011;68328;35.990;-86.756;2023-03-11T09:16:35;10;;;10;;
55021;SDS011;68328;35.990;-86.756;2023-03-11T09:19:00;8;;;8;;
55021;SDS011;68328;35.990;-86.756;2023-03-11T09:21:25;10;;;7;;
55021;SDS011;68328;35.990;-86.756;2023-03-11T09:23:51;7;;;6;;
55021;SDS011;68328;35.990;-86.756;2023-03-11T09:26:16;8;;;8;;
55021;SDS011;68328;35.990;-86.756;2023-03-11T09:28:42;9;;;9;;
55021;SDS011;68328;35.990;-86.756;2023-03-11T09:31:07;7;;;7;;
55021;SDS011;68328;35.990;-86.756;2023-03-11T09:33:35;9;;;9;;
55021;SDS011;68328;35.990;-86.756;2023-03-11T09:35:58;8;;;8;;
55021;SDS011;68328;35.990;-86.756;2023-03-11T09:38:23;10;;;10;;
55021;SDS011;68328;35.990;-86.756;2023-03-11T09:40:51;12;;;10;;
55021;SDS011;68328;35.990;-86.756;2023-03-11T09:43:15;8;;;8;;
55021;SDS011;68328;35.990;-86.756;2023-03-11T09:45:39;9;;;9;;
55021;SDS011;68328;35.990;-86.756;2023-03-11T09:48:08;12;;;10;;
55021;SDS011;68328;35.990;-86.756;2023-03-11T09:50:30;9;;;9;;
55021;SDS011;68328;35.990;-86.756;2023-03-11T09:52:59;9;;;8;;
55021;SDS011;68328;35.990;-86.756;2023-03-11T09:55:24;9;;;9;;
55021;SDS011;68328;35.990;-86.756;2023-03-11T09:57:46;10;;;9;;
55021;SDS011;68328;35.990;-86.756;2023-03-11T10:00:12;16;;;16;;
55021;SDS011;68328;35.990;-86.756;2023-03-11T10:02:37;11;;;9;;
55021;SDS011;68328;35.990;-86.756;2023-03-11T10:05:05;13;;;11;;
55021;SDS011;68328;35.990;-86.756;2023-03-11T10:07:30;11;;;10;;
55021;SDS011;68328;35.990;-86.756;2023-03-11T10:09:54;8;;;8;;
55021;SDS011;68328;35.990;-86.756;2023-03-11T10:12:23;9;;;9;;
55021;SDS011;68328;35.990;-86.756;2023-03-11T10:14:49;12;;;12;;
55021;SDS011;68328;35.990;-86.756;2023-03-11T10:17:13;11;;;11;;
55021;SDS011;68328;35.990;-86.756;2023-03-11T10:19:37;8;;;8;;
55021;SDS011;68328;35.990;-86.756;2023-03-11T10:22:01;9;;;9;;
55021;SDS011;68328;35.990;-86.756;2023-03-11T10:26:53;10;;;10;;
55021;SDS011;68328;35.990;-86.756;2023-03-11T10:29:18;11;;;11;;
55021;SDS011;68328;35.990;-86.756;2023-03-11T10:31:43;9;;;9;;
55021;SDS011;68328;35.990;-86.756;2023-03-11T10:34:10;12;;;12;;
55021;SDS011;68328;35.990;-86.756;2023-03-11T10:36:34;11;;;11;;
55021;SDS011;68328;35.990;-86.756;2023-03-11T10:38:59;10;;;10;;
55021;SDS011;68328;35.990;-86.756;2023-03-11T10:41:27;11;;;11;;
55021;SDS011;68328;35.990;-86.756;2023-03-11T10:43:51;12;;;12;;
55021;SDS011;68328;35.990;-86.756;2023-03-11T10:46:18;10;;;10;;
55021;SDS011;68328;35.990;-86.756;2023-03-11T10:48:40;11;;;11;;
55021;SDS011;68328;35.990;-86.756;2023-03-11T10:51:11;9;;;9;;
55021;SDS011;68328;35.990;-86.756;2023-03-11T10:53:32;11;;;10;;
55021;SDS011;68328;35.990;-86.756;2023-03-11T10:55:58;10;;;9;;
55021;SDS011;68328;35.990;-86.756;2023-03-11T10:58:24;12;;;12;;
55021;SDS011;68328;35.990;-86.756;2023-03-11T11:03:16;9;;;9;;
55021;SDS011;68328;35.990;-86.756;2023-03-11T11:05:39;14;;;11;;
55021;SDS011;68328;35.990;-86.756;2023-03-11T11:08:05;10;;;10;;
55021;SDS011;68328;35.990;-86.756;2023-03-11T11:10:30;13;;;11;;
55021;SDS011;68328;35.990;-86.756;2023-03-11T11:12:56;9;;;9;;
55021;SDS011;68328;35.990;-86.756;2023-03-11T11:15:20;15;;;15;;
55021;SDS011;68328;35.990;-86.756;2023-03-11T11:17:45;10;;;10;;
55021;SDS011;68328;35.990;-86.756;2023-03-11T11:20:14;10;;;10;;
55021;SDS011;68328;35.990;-86.756;2023-03-11T11:22:36;12;;;11;;
55021;SDS011;68328;35.990;-86.756;2023-03-11T11:25:02;10;;;9;;
55021;SDS011;68328;35.990;-86.756;2023-03-11T11:27:27;12;;;12;;
55021;SDS011;68328;35.990;-86.756;2023-03-11T11:32:20;12;;;12;;
55021;SDS011;68328;35.990;-86.756;2023-03-11T11:37:10;11;;;9;;
55021;SDS011;68328;35.990;-86.756;2023-03-11T11:39:38;11;;;11;;
55021;SDS011;68328;35.990;-86.756;2023-03-11T11:42:00;9;;;9;;
55021;SDS011;68328;35.990;-86.756;2023-03-11T11:44:27;12;;;12;;
55021;SDS011;68328;35.990;-86.756;2023-03-11T11:46:51;14;;;14;;
55021;SDS011;68328;35.990;-86.756;2023-03-11T11:49:17;11;;;11;;
55021;SDS011;68328;35.990;-86.756;2023-03-11T11:51:41;14;;;14;;
55021;SDS011;68328;35.990;-86.756;2023-03-11T11:54:10;10;;;10;;
55021;SDS011;68328;35.990;-86.756;2023-03-11T11:56:31;11;;;10;;
55021;SDS011;68328;35.990;-86.756;2023-03-11T11:58:57;12;;;11;;
55021;SDS011;68328;35.990;-86.756;2023-03-11T12:01:25;12;;;11;;
55021;SDS011;68328;35.990;-86.756;2023-03-11T12:03:53;14;;;13;;
55021;SDS011;68328;35.990;-86.756;2023-03-11T12:06:15;11;;;10;;
55021;SDS011;68328;35.990;-86.756;2023-03-11T12:08:40;10;;;10;;
55021;SDS011;68328;35.990;-86.756;2023-03-11T12:11:04;16;;;14;;
55021;SDS011;68328;35.990;-86.756;2023-03-11T12:13:32;11;;;11;;
55021;SDS011;68328;35.990;-86.756;2023-03-11T12:15:55;11;;;11;;
55021;SDS011;68328;35.990;-86.756;2023-03-11T12:18:21;12;;;11;;
55021;SDS011;68328;35.990;-86.756;2023-03-11T12:20:46;17;;;16;;
55021;SDS011;68328;35.990;-86.756;2023-03-11T12:23:18;10;;;10;;
55021;SDS011;68328;35.990;-86.756;2023-03-11T12:25:38;13;;;12;;
55021;SDS011;68328;35.990;-86.756;2023-03-11T12:28:04;14;;;13;;
55021;SDS011;68328;35.990;-86.756;2023-03-11T12:30:29;9;;;9;;
55021;SDS011;68328;35.990;-86.756;2023-03-11T12:32:54;14;;;12;;
55021;SDS011;68328;35.990;-86.756;2023-03-11T12:35:20;18;;;18;;
55021;SDS011;68328;35.990;-86.756;2023-03-11T12:37:44;15;;;15;;
55021;SDS011;68328;35.990;-86.756;2023-03-11T12:42:37;12;;;12;;
55021;SDS011;68328;35.990;-86.756;2023-03-11T12:45:00;14;;;13;;
55021;SDS011;68328;35.990;-86.756;2023-03-11T12:47:25;16;;;14;;
55021;SDS011;68328;35.990;-86.756;2023-03-11T12:49:51;12;;;12;;
55021;SDS011;68328;35.990;-86.756;2023-03-11T12:52:17;11;;;11;;
55021;SDS011;68328;35.990;-86.756;2023-03-11T12:54:41;14;;;13;;
55021;SDS011;68328;35.990;-86.756;2023-03-11T12:57:09;14;;;13;;
55021;SDS011;68328;35.990;-86.756;2023-03-11T12:59:36;15;;;15;;
55021;SDS011;68328;35.990;-86.756;2023-03-11T13:01:58;14;;;14;;
55021;SDS011;68328;35.990;-86.756;2023-03-11T13:04:25;13;;;13;;
55021;SDS011;68328;35.990;-86.756;2023-03-11T13:06:55;19;;;19;;
55021;SDS011;68328;35.990;-86.756;2023-03-11T13:09:13;12;;;12;;
55021;SDS011;68328;35.990;-86.756;2023-03-11T13:11:41;13;;;12;;
55021;SDS011;68328;35.990;-86.756;2023-03-11T13:14:09;14;;;13;;
55021;SDS011;68328;35.990;-86.756;2023-03-11T13:16:35;17;;;17;;
55021;SDS011;68328;35.990;-86.756;2023-03-11T13:18:55;14;;;13;;
55021;SDS011;68328;35.990;-86.756;2023-03-11T13:23:45;14;;;14;;
55021;SDS011;68328;35.990;-86.756;2023-03-11T13:28:46;13;;;13;;
55021;SDS011;68328;35.990;-86.756;2023-03-11T13:31:11;11;;;11;;
55021;SDS011;68328;35.990;-86.756;2023-03-11T13:33:30;15;;;15;;
55021;SDS011;68328;35.990;-86.756;2023-03-11T13:36:00;10;;;10;;
55021;SDS011;68328;35.990;-86.756;2023-03-11T13:40:43;17;;;17;;
55021;SDS011;68328;35.990;-86.756;2023-03-11T13:43:10;17;;;17;;
55021;SDS011;68328;35.990;-86.756;2023-03-11T13:45:35;16;;;14;;
55021;SDS011;68328;35.990;-86.756;2023-03-11T13:48:00;14;;;13;;
55021;SDS011;68328;35.990;-86.756;2023-03-11T13:50:25;13;;;13;;
55021;SDS011;68328;35.990;-86.756;2023-03-11T13:52:50;13;;;13;;
55021;SDS011;68328;35.990;-86.756;2023-03-11T13:55:17;13;;;11;;
55021;SDS011;68328;35.990;-86.756;2023-03-11T13:57:41;7;;;7;;
55021;SDS011;68328;35.990;-86.756;2023-03-11T14:00:12;9;;;8;;
55021;SDS011;68328;35.990;-86.756;2023-03-11T14:02:32;10;;;10;;
55021;SDS011;68328;35.990;-86.756;2023-03-11T14:04:57;10;;;10;;
55021;SDS011;68328;35.990;-86.756;2023-03-11T14:07:25;10;;;10;;
55021;SDS011;68328;35.990;-86.756;2023-03-11T14:09:47;11;;;11;;
55021;SDS011;68328;35.990;-86.756;2023-03-11T14:12:12;12;;;12;;
55021;SDS011;68328;35.990;-86.756;2023-03-11T14:14:41;10;;;10;;
55021;SDS011;68328;35.990;-86.756;2023-03-11T14:17:03;10;;;9;;
55021;SDS011;68328;35.990;-86.756;2023-03-11T14:19:28;11;;;11;;
55021;SDS011;68328;35.990;-86.756;2023-03-11T14:21:54;10;;;10;;
55021;SDS011;68328;35.990;-86.756;2023-03-11T14:24:21;9;;;9;;
55021;SDS011;68328;35.990;-86.756;2023-03-11T14:26:44;8;;;8;;
55021;SDS011;68328;35.990;-86.756;2023-03-11T14:29:10;9;;;9;;
55021;SDS011;68328;35.990;-86.756;2023-03-11T14:31:36;11;;;8;;
55021;SDS011;68328;35.990;-86.756;2023-03-11T14:34:01;10;;;8;;
55021;SDS011;68328;35.990;-86.756;2023-03-11T14:36:26;9;;;9;;
55021;SDS011;68328;35.990;-86.756;2023-03-11T14:38:52;8;;;8;;
55021;SDS011;68328;35.990;-86.756;2023-03-11T14:41:18;10;;;10;;
55021;SDS011;68328;35.990;-86.756;2023-03-11T14:43:43;8;;;8;;
55021;SDS011;68328;35.990;-86.756;2023-03-11T14:46:09;9;;;9;;
55021;SDS011;68328;35.990;-86.756;2023-03-11T14:48:34;7;;;7;;
55021;SDS011;68328;35.990;-86.756;2023-03-11T14:50:59;12;;;9;;
55021;SDS011;68328;35.990;-86.756;2023-03-11T14:53:25;9;;;8;;
55021;SDS011;68328;35.990;-86.756;2023-03-11T14:55:50;8;;;8;;
55021;SDS011;68328;35.990;-86.756;2023-03-11T14:58:15;8;;;8;;
55021;SDS011;68328;35.990;-86.756;2023-03-11T15:00:41;8;;;7;;
55021;SDS011;68328;35.990;-86.756;2023-03-11T15:03:11;9;;;9;;
55021;SDS011;68328;35.990;-86.756;2023-03-11T15:05:34;8;;;8;;
55021;SDS011;68328;35.990;-86.756;2023-03-11T15:07:58;4;;;4;;
55021;SDS011;68328;35.990;-86.756;2023-03-11T15:10:22;8;;;8;;
55021;SDS011;68328;35.990;-86.756;2023-03-11T15:12:47;8;;;8;;
55021;SDS011;68328;35.990;-86.756;2023-03-11T15:15:22;8;;;8;;
55021;SDS011;68328;35.990;-86.756;2023-03-11T15:17:38;10;;;10;;
55021;SDS011;68328;35.990;-86.756;2023-03-11T15:20:04;8;;;6;;
55021;SDS011;68328;35.990;-86.756;2023-03-11T15:22:30;10;;;10;;
55021;SDS011;68328;35.990;-86.756;2023-03-11T15:24:55;10;;;10;;
55021;SDS011;68328;35.990;-86.756;2023-03-11T15:27:25;8;;;8;;
55021;SDS011;68328;35.990;-86.756;2023-03-11T15:29:48;8;;;8;;
55021;SDS011;68328;35.990;-86.756;2023-03-11T15:34:36;10;;;10;;
55021;SDS011;68328;35.990;-86.756;2023-03-11T15:37:04;11;;;9;;
55021;SDS011;68328;35.990;-86.756;2023-03-11T15:39:27;13;;;12;;
55021;SDS011;68328;35.990;-86.756;2023-03-11T15:41:57;12;;;12;;
55021;SDS011;68328;35.990;-86.756;2023-03-11T15:44:21;9;;;9;;
55021;SDS011;68328;35.990;-86.756;2023-03-11T15:46:42;10;;;10;;
55021;SDS011;68328;35.990;-86.756;2023-03-11T15:49:08;8;;;8;;
55021;SDS011;68328;35.990;-86.756;2023-03-11T15:51:32;9;;;9;;
55021;SDS011;68328;35.990;-86.756;2023-03-11T15:53:58;10;;;10;;
55021;SDS011;68328;35.990;-86.756;2023-03-11T15:56:23;10;;;8;;